createdAt,value
2019-05-18T00:02:05.656Z,8.63
2019-05-18T00:04:34.158Z,8.93
2019-05-18T00:07:02.733Z,9.07
2019-05-18T00:09:31.332Z,9.20
2019-05-18T00:11:59.976Z,9.13
2019-05-18T00:14:28.422Z,9.33
2019-05-18T00:16:56.798Z,11.07
2019-05-18T00:19:25.262Z,8.80
2019-05-18T00:21:53.723Z,9.33
2019-05-18T00:24:22.097Z,9.00
2019-05-18T00:26:50.398Z,9.27
2019-05-18T00:29:18.883Z,8.63
2019-05-18T00:31:47.338Z,8.30
2019-05-18T00:34:15.735Z,8.80
2019-05-18T00:36:44.170Z,9.70
2019-05-18T00:39:12.494Z,8.80
2019-05-18T00:41:40.814Z,9.10
2019-05-18T00:44:09.207Z,9.80
2019-05-18T00:46:37.592Z,9.60
2019-05-18T00:49:06.161Z,9.63
2019-05-18T00:51:34.540Z,9.57
2019-05-18T00:54:02.917Z,9.90
2019-05-18T00:56:31.228Z,9.90
2019-05-18T00:58:59.725Z,8.63
2019-05-18T01:01:28.029Z,9.53
2019-05-18T01:03:56.344Z,10.97
2019-05-18T01:06:24.717Z,9.27
2019-05-18T01:08:53.157Z,10.47
2019-05-18T01:11:21.533Z,10.63
2019-05-18T01:13:50.062Z,8.80
2019-05-18T01:16:18.452Z,9.83
2019-05-18T01:18:46.819Z,11.13
2019-05-18T01:21:15.217Z,10.10
2019-05-18T01:23:43.505Z,9.80
2019-05-18T01:26:11.985Z,10.80
2019-05-18T01:28:40.430Z,11.10
2019-05-18T01:31:08.748Z,10.60
2019-05-18T01:33:37.184Z,9.30
2019-05-18T01:36:05.523Z,10.13
2019-05-18T01:38:33.888Z,9.23
2019-05-18T01:41:02.358Z,9.70
2019-05-18T01:43:30.698Z,9.87
2019-05-18T01:45:59.036Z,9.93
2019-05-18T01:48:27.326Z,9.00
2019-05-18T01:50:55.809Z,10.50
2019-05-18T01:53:24.284Z,10.10
2019-05-18T01:55:52.921Z,11.47
2019-05-18T01:58:21.284Z,9.60
2019-05-18T02:00:49.610Z,10.20
2019-05-18T02:03:17.915Z,10.73
2019-05-18T02:05:46.315Z,10.27
2019-05-18T02:08:14.677Z,10.30
2019-05-18T02:10:43.323Z,9.67
2019-05-18T02:13:11.790Z,9.70
2019-05-18T02:15:40.238Z,9.83
2019-05-18T02:18:08.581Z,10.93
2019-05-18T02:20:36.904Z,9.97
2019-05-18T02:23:05.238Z,10.37
2019-05-18T02:25:33.608Z,9.60
2019-05-18T02:28:02.628Z,10.10
2019-05-18T02:30:30.998Z,9.93
2019-05-18T02:32:59.456Z,10.37
2019-05-18T02:35:28.138Z,10.20
2019-05-18T02:37:58.161Z,10.40
2019-05-18T02:40:26.538Z,10.03
2019-05-18T02:42:54.948Z,13.27
2019-05-18T02:45:23.244Z,10.83
2019-05-18T02:47:51.788Z,9.90
2019-05-18T02:50:20.276Z,11.03
2019-05-18T02:52:48.608Z,10.10
2019-05-18T02:55:17.140Z,10.60
2019-05-18T02:57:45.548Z,9.80
2019-05-18T03:00:14.743Z,10.43
2019-05-18T03:02:43.147Z,10.07
2019-05-18T03:05:11.547Z,10.60
2019-05-18T03:07:39.931Z,10.07
2019-05-18T03:10:08.821Z,9.90
2019-05-18T03:12:37.337Z,10.63
2019-05-18T03:15:07.238Z,10.07
2019-05-18T03:17:35.659Z,9.77
2019-05-18T03:20:05.536Z,9.50
2019-05-18T03:22:33.820Z,10.30
2019-05-18T03:25:02.252Z,10.77
2019-05-18T03:27:30.813Z,10.90
2019-05-18T03:29:59.232Z,11.67
2019-05-18T03:32:27.965Z,9.63
2019-05-18T03:34:56.507Z,10.73
2019-05-18T03:37:24.813Z,9.73
2019-05-18T03:39:53.415Z,9.87
2019-05-18T03:42:21.747Z,10.00
2019-05-18T03:44:50.112Z,9.90
2019-05-18T03:47:18.420Z,11.17
2019-05-18T03:49:46.814Z,9.80
2019-05-18T03:52:15.367Z,11.43
2019-05-18T03:54:43.765Z,10.47
2019-05-18T03:57:12.296Z,10.40
2019-05-18T03:59:43.870Z,10.03
2019-05-18T04:02:12.192Z,9.50
2019-05-18T04:04:40.588Z,10.00
2019-05-18T04:07:08.954Z,9.80
2019-05-18T04:09:37.462Z,9.93
2019-05-18T04:12:05.818Z,9.27
2019-05-18T04:14:34.316Z,9.73
2019-05-18T04:17:02.696Z,10.93
2019-05-18T04:19:45.460Z,9.57
2019-05-18T04:22:01.143Z,10.70
2019-05-18T04:24:29.453Z,9.13
2019-05-18T04:26:57.874Z,9.43
2019-05-18T04:29:26.164Z,9.73
2019-05-18T04:31:54.517Z,8.87
2019-05-18T04:34:22.832Z,10.00
2019-05-18T04:36:51.451Z,10.20
2019-05-18T04:39:19.819Z,9.40
2019-05-18T04:41:48.121Z,9.97
2019-05-18T04:44:16.484Z,9.47
2019-05-18T04:46:44.949Z,8.83
2019-05-18T04:49:13.380Z,9.37
2019-05-18T04:51:41.711Z,9.60
2019-05-18T04:54:10.076Z,9.17
2019-05-18T04:56:42.152Z,9.33
2019-05-18T04:59:08.654Z,9.40
2019-05-18T05:01:36.961Z,8.93
2019-05-18T05:04:05.599Z,10.23
2019-05-18T05:06:33.941Z,10.47
2019-05-18T05:09:02.249Z,11.77
2019-05-18T05:11:30.593Z,10.23
2019-05-18T05:13:58.976Z,10.27
2019-05-18T05:16:27.404Z,10.40
2019-05-18T05:18:55.708Z,9.70
2019-05-18T05:21:25.068Z,10.57
2019-05-18T05:23:53.370Z,10.00
2019-05-18T05:26:21.856Z,9.73
2019-05-18T05:28:50.578Z,10.53
2019-05-18T05:31:19.022Z,10.60
2019-05-18T05:33:47.605Z,11.17
2019-05-18T05:36:15.998Z,10.30
2019-05-18T05:38:44.403Z,10.40
2019-05-18T05:41:16.643Z,11.77
2019-05-18T05:43:44.982Z,9.67
2019-05-18T05:46:13.281Z,11.23
2019-05-18T05:48:41.799Z,10.97
2019-05-18T05:51:10.668Z,11.73
2019-05-18T05:53:39.008Z,11.10
2019-05-18T05:56:07.384Z,11.40
2019-05-18T05:58:35.957Z,10.27
2019-05-18T06:01:04.260Z,11.80
2019-05-18T06:03:32.896Z,10.50
2019-05-18T06:06:01.226Z,9.90
2019-05-18T06:08:29.573Z,9.57
2019-05-18T06:10:57.925Z,9.00
2019-05-18T06:13:26.438Z,9.70
2019-05-18T06:15:55.078Z,10.40
2019-05-18T06:18:23.583Z,9.90
2019-05-18T06:20:52.254Z,9.47
2019-05-18T06:23:20.701Z,9.57
2019-05-18T06:25:49.098Z,10.03
2019-05-18T06:28:17.480Z,9.20
2019-05-18T06:30:45.824Z,9.50
2019-05-18T06:33:14.530Z,8.83
2019-05-18T06:35:42.839Z,8.30
2019-05-18T06:38:14.003Z,8.80
2019-05-18T06:40:42.341Z,8.10
2019-05-18T06:43:10.925Z,10.00
2019-05-18T06:45:39.317Z,9.50
2019-05-18T06:48:07.695Z,10.80
2019-05-18T06:50:36.099Z,9.60
2019-05-18T06:53:04.543Z,10.27
2019-05-18T06:55:33.082Z,10.40
2019-05-18T06:58:02.117Z,9.80
2019-05-18T07:00:30.499Z,9.60
2019-05-18T07:02:58.845Z,10.80
2019-05-18T07:05:27.315Z,9.93
2019-05-18T07:07:55.779Z,11.77
2019-05-18T07:10:24.210Z,10.90
2019-05-18T07:12:52.805Z,10.87
2019-05-18T07:15:21.255Z,11.47
2019-05-18T07:17:49.597Z,11.07
2019-05-18T07:20:19.099Z,12.47
2019-05-18T07:22:47.426Z,11.50
2019-05-18T07:25:15.907Z,12.07
2019-05-18T07:27:44.447Z,11.73
2019-05-18T07:30:13.193Z,11.90
2019-05-18T07:32:41.576Z,13.27
2019-05-18T07:35:10.240Z,15.20
2019-05-18T07:37:38.594Z,12.47
2019-05-18T07:40:08.910Z,13.13
2019-05-18T07:42:37.330Z,11.07
2019-05-18T07:45:09.212Z,12.30
2019-05-18T07:47:37.568Z,12.97
2019-05-18T07:50:07.500Z,12.00
2019-05-18T07:52:35.995Z,11.27
2019-05-18T07:55:05.910Z,11.83
2019-05-18T07:57:34.263Z,12.83
2019-05-18T08:00:02.779Z,12.03
2019-05-18T08:02:31.174Z,12.73
2019-05-18T08:04:59.640Z,12.63
2019-05-18T08:07:28.082Z,12.10
2019-05-18T08:09:56.528Z,11.67
2019-05-18T08:12:24.954Z,12.00
2019-05-18T08:14:59.433Z,14.17
2019-05-18T08:17:29.442Z,15.07
2019-05-18T08:19:57.830Z,11.37
2019-05-18T08:22:26.158Z,12.40
2019-05-18T08:24:54.655Z,12.33
2019-05-18T08:27:24.625Z,13.60
2019-05-18T08:29:52.953Z,12.30
2019-05-18T08:32:21.767Z,13.50
2019-05-18T08:34:50.217Z,13.13
2019-05-18T08:37:18.758Z,11.33
2019-05-18T08:39:47.213Z,12.40
2019-05-18T08:42:15.696Z,12.20
2019-05-18T08:44:44.101Z,11.30
2019-05-18T08:47:12.395Z,11.90
2019-05-18T08:49:41.299Z,13.50
2019-05-18T08:52:09.699Z,14.07
2019-05-18T08:54:38.069Z,13.37
2019-05-18T08:57:06.387Z,12.03
2019-05-18T08:59:35.009Z,12.80
2019-05-18T09:02:05.209Z,12.70
2019-05-18T09:04:34.655Z,11.40
2019-05-18T09:07:02.975Z,12.73
2019-05-18T09:09:32.179Z,13.67
2019-05-18T09:12:00.617Z,11.93
2019-05-18T09:14:28.996Z,12.07
2019-05-18T09:16:57.548Z,11.10
2019-05-18T09:19:25.976Z,15.50
2019-05-18T09:21:55.189Z,10.80
2019-05-18T09:24:23.581Z,12.10
2019-05-18T09:26:52.271Z,11.70
2019-05-18T09:29:20.751Z,11.67
2019-05-18T09:31:49.407Z,11.60
2019-05-18T09:34:17.750Z,11.53
2019-05-18T09:36:46.204Z,11.93
2019-05-18T09:39:14.539Z,12.50
2019-05-18T09:41:43.228Z,13.17
2019-05-18T09:44:11.712Z,11.70
2019-05-18T09:46:40.426Z,12.47
2019-05-18T09:49:08.870Z,11.37
2019-05-18T09:51:37.223Z,11.40
2019-05-18T09:54:05.611Z,12.80
2019-05-18T09:56:33.948Z,12.13
2019-05-18T09:59:02.415Z,12.07
2019-05-18T10:01:30.887Z,14.00
2019-05-18T10:03:59.185Z,13.40
2019-05-18T10:06:31.445Z,14.30
2019-05-18T10:08:59.510Z,11.50
2019-05-18T10:11:28.192Z,12.93
2019-05-18T10:13:56.683Z,11.93
2019-05-18T10:16:25.451Z,11.60
2019-05-18T10:18:53.851Z,11.07
2019-05-18T10:21:23.430Z,11.47
2019-05-18T10:23:52.017Z,12.57
2019-05-18T10:26:20.589Z,11.50
2019-05-18T10:28:51.336Z,10.13
2019-05-18T10:31:19.750Z,10.50
2019-05-18T10:33:48.315Z,10.43
2019-05-18T10:36:16.701Z,10.90
2019-05-18T10:38:45.203Z,8.93
2019-05-18T10:41:13.673Z,10.00
2019-05-18T10:43:46.870Z,9.70
2019-05-18T10:46:14.957Z,10.30
2019-05-18T10:48:43.474Z,10.10
2019-05-18T10:51:11.846Z,10.80
2019-05-18T10:53:40.335Z,9.90
2019-05-18T10:56:09.263Z,10.03
2019-05-18T10:58:37.783Z,12.53
2019-05-18T11:01:06.270Z,10.20
2019-05-18T11:03:34.669Z,11.20
2019-05-18T11:06:03.500Z,10.97
2019-05-18T11:08:32.223Z,8.73
2019-05-18T11:11:00.591Z,9.07
2019-05-18T11:13:29.146Z,9.20
2019-05-18T11:15:57.437Z,9.20
2019-05-18T11:18:26.046Z,11.40
2019-05-18T11:20:54.426Z,9.40
2019-05-18T11:23:23.556Z,9.17
2019-05-18T11:25:52.110Z,8.67
2019-05-18T11:28:21.138Z,8.70
2019-05-18T11:30:50.175Z,9.00
2019-05-18T11:33:20.055Z,8.63
2019-05-18T11:35:48.954Z,7.97
2019-05-18T11:38:18.937Z,8.30
2019-05-18T11:40:47.778Z,7.80
2019-05-18T11:43:16.917Z,7.57
2019-05-18T11:45:46.152Z,7.77
2019-05-18T11:48:15.439Z,9.50
2019-05-18T11:50:44.501Z,11.03
2019-05-18T11:53:13.760Z,7.40
2019-05-18T11:55:42.556Z,7.50
2019-05-18T11:58:10.925Z,7.13
2019-05-18T12:00:40.353Z,7.33
2019-05-18T12:03:09.730Z,7.20
2019-05-18T12:05:38.094Z,6.90
2019-05-18T12:08:06.801Z,7.63
2019-05-18T12:10:35.723Z,6.77
2019-05-18T12:13:05.223Z,7.23
2019-05-18T12:15:34.525Z,6.60
2019-05-18T12:18:04.169Z,6.23
2019-05-18T12:20:33.365Z,6.63
2019-05-18T12:23:02.141Z,6.60
2019-05-18T12:25:30.634Z,5.83
2019-05-18T12:27:59.033Z,6.23
2019-05-18T12:30:28.234Z,6.40
2019-05-18T12:32:56.642Z,6.43
2019-05-18T12:35:25.014Z,6.40
2019-05-18T12:37:54.248Z,5.70
2019-05-18T12:40:23.132Z,6.20
2019-05-18T12:42:51.626Z,10.63
2019-05-18T12:45:20.239Z,6.80
2019-05-18T12:47:48.784Z,6.87
2019-05-18T12:50:22.285Z,6.83
2019-05-18T12:52:50.882Z,5.97
2019-05-18T12:55:20.272Z,6.83
2019-05-18T12:57:48.751Z,6.83
2019-05-18T13:00:19.094Z,6.43
2019-05-18T13:02:47.491Z,6.00
2019-05-18T13:05:15.982Z,5.90
2019-05-18T13:07:44.417Z,6.17
2019-05-18T13:10:14.385Z,5.73
2019-05-18T13:12:42.859Z,6.70
2019-05-18T13:15:12.195Z,5.63
2019-05-18T13:17:40.585Z,6.83
2019-05-18T13:20:11.759Z,6.53
2019-05-18T13:22:40.358Z,9.47
2019-05-18T13:25:09.546Z,8.60
2019-05-18T13:27:39.761Z,5.43
2019-05-18T13:30:13.010Z,4.20
2019-05-18T13:32:41.512Z,5.10
2019-05-18T13:35:12.024Z,6.80
2019-05-18T13:37:40.512Z,6.13
2019-05-18T13:40:09.554Z,6.60
2019-05-18T13:42:37.855Z,7.00
2019-05-18T13:45:07.298Z,6.70
2019-05-18T13:47:35.720Z,6.70
2019-05-18T13:50:04.903Z,4.73
2019-05-18T13:52:33.756Z,4.67
2019-05-18T13:55:04.764Z,5.23
2019-05-18T13:57:32.257Z,5.03
2019-05-18T14:00:06.323Z,5.40
2019-05-18T14:02:34.854Z,4.30
2019-05-18T14:05:03.551Z,4.60
2019-05-18T14:07:32.267Z,4.47
2019-05-18T14:10:04.747Z,3.93
2019-05-18T14:12:33.337Z,4.07
2019-05-18T14:15:02.178Z,4.03
2019-05-18T14:17:32.245Z,3.30
2019-05-18T14:20:00.754Z,4.73
2019-05-18T14:22:29.457Z,3.00
2019-05-18T14:24:59.550Z,4.67
2019-05-18T14:27:30.360Z,3.43
2019-05-18T14:29:58.781Z,3.87
2019-05-18T14:32:27.797Z,9.00
2019-05-18T14:34:58.053Z,3.70
2019-05-18T14:37:27.017Z,5.87
2019-05-18T14:39:57.825Z,3.30
2019-05-18T14:42:29.208Z,4.23
2019-05-18T14:44:57.686Z,4.63
2019-05-18T14:47:28.264Z,4.03
2019-05-18T14:49:56.771Z,4.73
2019-05-18T14:52:25.676Z,4.20
2019-05-18T14:54:54.462Z,4.00
2019-05-18T14:57:25.681Z,3.13
2019-05-18T14:59:53.174Z,5.30
2019-05-18T15:02:21.528Z,4.30
2019-05-18T15:04:53.104Z,3.67
2019-05-18T15:07:20.934Z,3.57
2019-05-18T15:09:49.376Z,3.93
2019-05-18T15:12:18.361Z,6.97
2019-05-18T15:14:47.539Z,4.43
2019-05-18T15:17:15.935Z,5.50
2019-05-18T15:19:44.435Z,3.57
2019-05-18T15:22:13.085Z,4.20
2019-05-18T15:24:42.260Z,3.70
2019-05-18T15:27:10.630Z,3.13
2019-05-18T15:29:39.002Z,4.03
2019-05-18T15:32:07.432Z,9.30
2019-05-18T15:34:35.796Z,3.70
2019-05-18T15:37:04.408Z,3.80
2019-05-18T15:39:32.790Z,4.03
2019-05-18T15:42:01.147Z,4.70
2019-05-18T15:44:29.564Z,4.20
2019-05-18T15:46:58.072Z,5.07
2019-05-18T15:49:26.428Z,4.43
2019-05-18T15:51:54.926Z,4.67
2019-05-18T15:54:23.291Z,3.67
2019-05-18T15:56:51.829Z,4.30
2019-05-18T15:59:20.357Z,4.40
2019-05-18T16:01:48.770Z,11.73
2019-05-18T16:04:17.156Z,17.43
2019-05-18T16:06:45.581Z,14.83
2019-05-18T16:09:13.894Z,9.57
2019-05-18T16:11:42.379Z,6.63
2019-05-18T16:14:10.740Z,14.20
2019-05-18T16:16:39.630Z,14.10
2019-05-18T16:19:09.666Z,19.17
2019-05-18T16:21:38.222Z,16.27
2019-05-18T16:24:06.745Z,15.80
2019-05-18T16:26:36.807Z,14.50
2019-05-18T16:29:05.257Z,14.63
2019-05-18T16:31:33.745Z,12.57
2019-05-18T16:34:02.217Z,12.43
2019-05-18T16:36:30.665Z,9.17
2019-05-18T16:38:59.040Z,8.70
2019-05-18T16:41:27.475Z,9.00
2019-05-18T16:43:55.850Z,7.63
2019-05-18T16:46:24.293Z,8.20
2019-05-18T16:48:52.639Z,9.70
2019-05-18T16:51:21.135Z,7.50
2019-05-18T16:53:50.517Z,9.00
2019-05-18T16:56:18.924Z,15.20
2019-05-18T16:58:47.762Z,18.17
2019-05-18T17:01:16.063Z,16.00
2019-05-18T17:03:44.478Z,19.07
2019-05-18T17:06:16.172Z,18.40
2019-05-18T17:08:43.015Z,19.83
2019-05-18T17:11:11.747Z,17.40
2019-05-18T17:13:41.648Z,8.20
2019-05-18T17:16:10.062Z,6.33
2019-05-18T17:18:38.568Z,4.80
2019-05-18T17:21:07.022Z,4.60
2019-05-18T17:23:35.654Z,5.80
2019-05-18T17:26:05.526Z,4.20
2019-05-18T17:28:33.893Z,5.20
2019-05-18T17:31:02.286Z,5.70
2019-05-18T17:33:30.672Z,5.63
2019-05-18T17:36:00.534Z,4.47
2019-05-18T17:38:29.867Z,5.50
2019-05-18T17:40:58.249Z,4.70
2019-05-18T17:43:26.569Z,5.60
2019-05-18T17:45:54.959Z,5.23
2019-05-18T17:48:23.454Z,5.30
2019-05-18T17:50:51.834Z,4.97
2019-05-18T17:53:21.365Z,6.50
2019-05-18T17:55:50.121Z,6.67
2019-05-18T17:58:18.682Z,7.00
2019-05-18T18:00:47.082Z,7.40
2019-05-18T18:03:15.402Z,5.90
2019-05-18T18:05:43.744Z,7.07
2019-05-18T18:09:04.303Z,6.87
2019-05-18T18:11:32.645Z,7.10
2019-05-18T18:14:01.120Z,6.03
2019-05-18T18:16:29.542Z,7.10
2019-05-18T18:18:57.978Z,5.70
2019-05-18T18:21:26.401Z,6.13
2019-05-18T18:23:55.364Z,5.27
2019-05-18T18:26:24.085Z,5.87
2019-05-18T18:28:52.414Z,6.67
2019-05-18T18:31:20.844Z,6.70
2019-05-18T18:33:49.226Z,6.83
2019-05-18T18:36:17.761Z,7.50
2019-05-18T18:38:46.292Z,6.77
2019-05-18T18:41:16.235Z,6.20
2019-05-18T18:43:44.714Z,6.40
2019-05-18T18:46:13.298Z,6.87
2019-05-18T18:48:41.760Z,7.50
2019-05-18T18:51:10.183Z,8.00
2019-05-18T18:53:38.501Z,7.20
2019-05-18T18:56:06.839Z,8.20
2019-05-18T18:58:35.728Z,9.57
2019-05-18T19:01:04.140Z,9.27
2019-05-18T19:03:32.527Z,7.60
2019-05-18T19:06:00.957Z,8.03
2019-05-18T19:08:29.333Z,18.80
2019-05-18T19:10:57.748Z,14.40
2019-05-18T19:13:26.551Z,10.57
2019-05-18T19:15:55.038Z,10.57
2019-05-18T19:18:23.445Z,12.23
2019-05-18T19:20:51.800Z,10.60
2019-05-18T19:23:20.122Z,9.20
2019-05-18T19:25:48.492Z,8.23
2019-05-18T19:28:16.863Z,8.10
2019-05-18T19:30:45.163Z,8.30
2019-05-18T19:33:13.512Z,8.00
2019-05-18T19:35:41.969Z,8.10
2019-05-18T19:38:10.375Z,8.30
2019-05-18T19:40:38.797Z,9.00
2019-05-18T19:43:07.450Z,8.03
2019-05-18T19:45:35.891Z,7.83
2019-05-18T19:48:04.353Z,7.80
2019-05-18T19:50:33.009Z,8.07
2019-05-18T19:53:01.712Z,8.30
2019-05-18T19:55:30.109Z,10.60
2019-05-18T19:58:08.445Z,7.97
2019-05-18T20:00:28.836Z,7.93
2019-05-18T20:02:57.233Z,7.23
2019-05-18T20:05:25.591Z,7.67
2019-05-18T20:07:54.290Z,10.60
2019-05-18T20:10:22.971Z,8.80
2019-05-18T20:12:51.297Z,7.70
2019-05-18T20:15:19.715Z,7.53
2019-05-18T20:17:48.025Z,7.60
2019-05-18T20:20:16.898Z,8.13
2019-05-18T20:22:45.331Z,7.30
2019-05-18T20:25:15.367Z,8.10
2019-05-18T20:27:43.660Z,7.27
2019-05-18T20:30:12.452Z,8.70
2019-05-18T20:32:40.820Z,9.10
2019-05-18T20:35:09.344Z,8.00
2019-05-18T20:37:37.819Z,11.37
2019-05-18T20:40:06.699Z,7.53
2019-05-18T20:42:37.555Z,7.30
2019-05-18T20:45:06.063Z,8.93
2019-05-18T20:47:34.462Z,8.70
2019-05-18T20:50:03.411Z,7.60
2019-05-18T20:52:31.695Z,7.87
2019-05-18T20:55:00.150Z,7.43
2019-05-18T20:57:28.599Z,8.63
2019-05-18T20:59:56.971Z,8.53
2019-05-18T21:02:25.412Z,8.50
2019-05-18T21:04:53.813Z,7.63
2019-05-18T21:07:22.160Z,7.37
2019-05-18T21:09:50.663Z,7.20
2019-05-18T21:12:19.113Z,6.70
2019-05-18T21:14:47.526Z,6.70
2019-05-18T21:17:15.877Z,6.43
2019-05-18T21:19:44.271Z,6.00
2019-05-18T21:22:12.798Z,6.90
2019-05-18T21:24:41.353Z,9.40
2019-05-18T21:27:09.750Z,6.70
2019-05-18T21:29:38.063Z,6.57
2019-05-18T21:32:06.425Z,7.73
2019-05-18T21:34:34.709Z,7.27
2019-05-18T21:37:03.385Z,7.10
2019-05-18T21:39:31.834Z,6.67
2019-05-18T21:42:00.247Z,6.63
2019-05-18T21:44:29.197Z,6.73
2019-05-18T21:46:57.748Z,7.60
2019-05-18T21:49:26.953Z,7.40
2019-05-18T21:51:56.126Z,7.83
2019-05-18T21:54:25.034Z,7.63
2019-05-18T21:56:54.284Z,7.17
2019-05-18T21:59:23.137Z,6.93
2019-05-18T22:03:01.206Z,7.40
2019-05-18T22:06:03.655Z,7.40
2019-05-18T22:09:02.964Z,7.23
2019-05-18T22:12:02.093Z,10.13
2019-05-18T22:33:02.466Z,10.50
2019-05-18T22:36:01.773Z,8.13
2019-05-18T22:39:05.565Z,7.90
2019-05-18T22:42:04.264Z,7.43
2019-05-18T22:45:03.932Z,7.30
2019-05-18T22:48:03.094Z,7.60
2019-05-18T23:05:01.321Z,7.80
2019-05-18T23:08:03.400Z,8.30
2019-05-18T23:11:02.675Z,6.80
2019-05-18T23:14:01.940Z,6.73
2019-05-18T23:17:04.292Z,7.00
2019-05-18T23:20:03.689Z,8.27
2019-05-18T23:23:03.091Z,7.40
2019-05-18T23:26:02.347Z,8.73
2019-05-18T23:29:04.615Z,8.07
2019-05-18T23:32:03.592Z,7.73
2019-05-18T23:35:02.694Z,9.23
2019-05-18T23:38:01.845Z,8.20
2019-05-18T23:41:04.040Z,7.93
2019-05-18T23:44:03.658Z,7.43
2019-05-18T23:47:02.543Z,9.27
2019-05-18T23:50:05.687Z,9.20
2019-05-18T23:53:04.737Z,8.00
2019-05-18T23:56:04.134Z,8.10
2019-05-18T23:58:32.903Z,8.07
